createdAt,value
2019-01-09T00:03:57.532Z,7.33
2019-01-09T00:09:01.312Z,7.20
2019-01-09T00:14:05.142Z,7.23
2019-01-09T00:19:08.867Z,6.20
2019-01-09T00:24:12.611Z,7.17
2019-01-09T00:29:16.385Z,6.67
2019-01-09T00:34:20.157Z,7.57
2019-01-09T00:39:23.935Z,8.13
2019-01-09T00:44:27.881Z,9.77
2019-01-09T00:49:31.754Z,9.10
2019-01-09T00:54:35.541Z,8.70
2019-01-09T01:00:18.870Z,8.73
2019-01-09T01:11:16.560Z,11.30
2019-01-09T01:17:19.804Z,11.80
2019-01-09T01:22:45.241Z,10.83
2019-01-09T01:28:14.652Z,10.93
2019-01-09T01:34:06.034Z,11.83
2019-01-09T01:39:43.743Z,13.97
2019-01-09T01:45:09.128Z,11.70
2019-01-09T01:50:55.475Z,13.43
2019-01-09T01:56:36.746Z,13.07
2019-01-09T02:02:24.355Z,15.90
2019-01-09T02:08:02.116Z,15.20
2019-01-09T02:13:36.806Z,17.80
2019-01-09T02:19:05.433Z,18.13
2019-01-09T02:24:38.360Z,18.10
2019-01-09T02:30:12.996Z,18.47
2019-01-09T02:35:16.659Z,17.27
2019-01-09T02:40:20.354Z,17.27
2019-01-09T02:45:24.002Z,16.73
2019-01-09T02:50:27.702Z,16.93
2019-01-09T02:55:31.365Z,17.70
2019-01-09T03:00:35.064Z,16.57
2019-01-09T03:05:38.687Z,15.93
2019-01-09T03:10:42.321Z,14.83
2019-01-09T03:15:46.075Z,14.83
2019-01-09T03:20:49.731Z,14.70
2019-01-09T03:25:53.388Z,13.57
2019-01-09T03:30:57.100Z,14.37
2019-01-09T03:36:00.908Z,13.93
2019-01-09T03:41:04.592Z,12.63
2019-01-09T03:46:08.251Z,13.73
2019-01-09T03:51:11.891Z,12.17
2019-01-09T03:56:15.755Z,12.33
2019-01-09T04:01:19.442Z,13.00
2019-01-09T04:06:23.093Z,11.87
2019-01-09T04:11:26.779Z,11.20
2019-01-09T04:16:30.483Z,11.27
2019-01-09T04:21:34.245Z,11.77
2019-01-09T04:26:37.918Z,11.10
2019-01-09T04:31:41.674Z,11.60
2019-01-09T04:36:51.311Z,12.40
2019-01-09T04:41:50.837Z,11.27
2019-01-09T04:46:54.574Z,11.00
2019-01-09T04:51:58.231Z,10.27
2019-01-09T04:57:01.893Z,10.57
2019-01-09T05:02:05.543Z,10.20
2019-01-09T05:07:09.262Z,10.50
2019-01-09T05:12:12.907Z,9.90
2019-01-09T05:17:16.559Z,8.80
2019-01-09T05:22:20.272Z,9.87
2019-01-09T05:27:24.345Z,9.30
2019-01-09T05:32:28.008Z,8.30
2019-01-09T05:37:31.726Z,9.43
2019-01-09T05:42:35.395Z,8.87
2019-01-09T05:47:39.111Z,8.80
2019-01-09T05:52:42.801Z,9.17
2019-01-09T05:57:46.706Z,7.10
2019-01-09T06:02:50.381Z,8.23
2019-01-09T06:07:54.113Z,7.60
2019-01-09T06:12:57.825Z,8.20
2019-01-09T06:18:01.563Z,7.83
2019-01-09T06:23:05.301Z,9.43
2019-01-09T06:28:09.134Z,7.53
2019-01-09T06:33:12.947Z,7.10
2019-01-09T06:38:16.639Z,7.17
2019-01-09T06:43:20.377Z,8.10
2019-01-09T06:48:24.506Z,7.60
2019-01-09T06:53:28.294Z,7.17
2019-01-09T06:58:32.005Z,7.00
2019-01-09T07:03:35.839Z,7.37
2019-01-09T07:08:39.756Z,7.27
2019-01-09T07:13:43.545Z,6.27
2019-01-09T07:18:47.381Z,6.63
2019-01-09T07:23:51.136Z,6.27
2019-01-09T07:28:55.023Z,6.30
2019-01-09T07:33:59.267Z,6.60
2019-01-09T07:39:04.461Z,6.87
2019-01-09T07:44:08.322Z,7.10
2019-01-09T07:49:12.131Z,7.10
2019-01-09T07:54:15.970Z,6.87
2019-01-09T07:59:19.683Z,6.17
2019-01-09T08:04:23.407Z,6.50
2019-01-09T08:09:27.193Z,5.77
2019-01-09T08:14:30.963Z,5.60
2019-01-09T08:19:34.792Z,5.57
2019-01-09T08:24:39.341Z,5.27
2019-01-09T08:29:43.251Z,5.50
2019-01-09T08:34:47.015Z,5.30
2019-01-09T08:39:51.061Z,5.33
2019-01-09T08:44:54.851Z,4.50
2019-01-09T08:49:58.929Z,4.50
2019-01-09T08:55:02.749Z,5.17
2019-01-09T09:00:08.475Z,4.90
2019-01-09T09:05:12.280Z,3.97
2019-01-09T09:10:16.216Z,4.10
2019-01-09T09:15:19.923Z,3.60
2019-01-09T09:20:23.992Z,3.57
2019-01-09T09:25:27.637Z,3.33
2019-01-09T09:30:31.319Z,2.87
2019-01-09T09:35:35.019Z,3.60
2019-01-09T09:40:39.020Z,2.60
2019-01-09T09:45:42.821Z,2.73
2019-01-09T09:50:46.674Z,3.30
2019-01-09T09:55:50.422Z,2.80
2019-01-09T10:00:54.369Z,3.60
2019-01-09T10:05:58.230Z,3.40
2019-01-09T10:11:02.156Z,4.00
2019-01-09T10:16:05.990Z,5.60
2019-01-09T10:21:09.816Z,3.30
2019-01-09T10:26:13.667Z,3.17
2019-01-09T10:31:17.662Z,3.27
2019-01-09T10:36:22.028Z,3.50
2019-01-09T10:41:58.215Z,3.20
2019-01-09T10:47:08.902Z,2.83
2019-01-09T10:52:14.507Z,2.30
2019-01-09T10:57:18.176Z,2.53
2019-01-09T11:02:22.090Z,2.50
2019-01-09T11:07:25.966Z,2.53
2019-01-09T11:12:30.061Z,2.30
2019-01-09T11:17:33.875Z,2.53
2019-01-09T11:22:37.651Z,2.40
2019-01-09T11:27:41.398Z,2.20
2019-01-09T11:32:45.156Z,2.30
2019-01-09T11:37:48.943Z,2.43
2019-01-09T11:42:52.747Z,2.57
2019-01-09T11:47:56.569Z,2.23
2019-01-09T11:53:00.403Z,2.40
2019-01-09T11:58:04.458Z,2.67
2019-01-09T12:03:08.318Z,2.57
2019-01-09T12:08:12.352Z,2.40
2019-01-09T12:13:16.367Z,2.53
2019-01-09T12:18:20.229Z,3.37
2019-01-09T12:23:24.019Z,2.20
2019-01-09T12:28:28.197Z,2.90
2019-01-09T12:33:32.071Z,2.23
2019-01-09T12:38:35.859Z,2.37
2019-01-09T12:43:39.727Z,2.20
2019-01-09T12:48:43.684Z,2.20
2019-01-09T12:53:47.435Z,2.10
2019-01-09T12:58:51.235Z,1.97
2019-01-09T13:03:55.062Z,2.10
2019-01-09T13:08:58.872Z,2.27
2019-01-09T13:14:02.699Z,2.20
2019-01-09T13:19:06.522Z,2.07
2019-01-09T13:24:10.441Z,1.53
2019-01-09T13:29:14.440Z,1.40
2019-01-09T13:34:18.180Z,1.60
2019-01-09T13:39:30.519Z,1.77
2019-01-09T13:44:28.168Z,1.40
2019-01-09T13:49:32.278Z,2.00
2019-01-09T13:54:36.356Z,1.90
2019-01-09T13:59:40.446Z,2.20
2019-01-09T14:04:44.260Z,1.63
2019-01-09T14:09:50.775Z,2.10
2019-01-09T14:14:54.479Z,1.80
2019-01-09T14:19:58.274Z,2.10
2019-01-09T14:25:02.083Z,2.30
2019-01-09T14:30:09.947Z,2.30
2019-01-09T14:35:13.846Z,1.83
2019-01-09T14:40:17.656Z,2.47
2019-01-09T14:45:21.571Z,2.33
2019-01-09T14:50:25.522Z,2.70
2019-01-09T14:55:29.385Z,2.40
2019-01-09T15:00:33.178Z,2.37
2019-01-09T15:05:36.999Z,4.20
2019-01-09T15:10:40.877Z,3.73
2019-01-09T15:15:44.672Z,3.57
2019-01-09T15:20:48.519Z,3.67
2019-01-09T15:25:52.288Z,3.53
2019-01-09T15:30:56.148Z,3.67
2019-01-09T15:36:00.120Z,4.37
2019-01-09T15:41:03.931Z,4.90
2019-01-09T15:46:07.895Z,4.67
2019-01-09T15:51:12.264Z,5.17
2019-01-09T15:56:17.434Z,4.80
2019-01-09T16:01:24.877Z,5.60
2019-01-09T16:06:28.766Z,7.13
2019-01-09T16:11:32.609Z,6.00
2019-01-09T16:16:36.462Z,6.27
2019-01-09T16:21:40.620Z,6.70
2019-01-09T16:26:44.408Z,6.33
2019-01-09T16:31:48.338Z,7.43
2019-01-09T16:36:52.425Z,6.73
2019-01-09T16:41:56.478Z,7.53
2019-01-09T16:47:00.419Z,7.73
2019-01-09T16:52:04.276Z,8.07
2019-01-09T16:57:08.369Z,7.87
2019-01-09T17:02:12.222Z,8.20
2019-01-09T17:07:16.285Z,8.77
2019-01-09T17:12:20.379Z,8.30
2019-01-09T17:17:24.211Z,9.40
2019-01-09T17:22:28.112Z,8.53
2019-01-09T17:27:31.931Z,9.30
2019-01-09T17:32:35.838Z,9.33
2019-01-09T17:37:39.673Z,10.37
2019-01-09T17:42:43.531Z,10.07
2019-01-09T17:47:47.542Z,10.40
2019-01-09T17:52:52.114Z,11.50
2019-01-09T17:57:55.857Z,12.57
2019-01-09T18:02:59.720Z,11.97
2019-01-09T18:08:10.349Z,13.03
2019-01-09T18:13:09.084Z,11.60
2019-01-09T18:18:12.849Z,12.60
2019-01-09T18:23:17.000Z,11.00
2019-01-09T18:28:20.829Z,12.77
2019-01-09T18:33:49.873Z,12.97
2019-01-09T18:39:31.659Z,12.00
2019-01-09T18:45:32.119Z,12.80
2019-01-09T18:51:03.498Z,11.97
2019-01-09T18:56:09.832Z,12.37
2019-01-09T19:01:13.707Z,11.10
2019-01-09T19:06:17.948Z,11.57
2019-01-09T19:11:22.093Z,11.00
2019-01-09T19:16:26.298Z,11.83
2019-01-09T19:21:30.443Z,11.33
2019-01-09T19:26:34.712Z,11.93
2019-01-09T19:31:38.448Z,12.23
2019-01-09T19:36:42.634Z,12.40
2019-01-09T19:41:46.533Z,13.33
2019-01-09T19:46:50.458Z,12.97
2019-01-09T19:51:54.328Z,13.37
2019-01-09T19:56:58.217Z,13.00
2019-01-09T20:02:01.983Z,12.70
2019-01-09T20:07:05.806Z,11.90
2019-01-09T20:12:10.874Z,12.57
2019-01-09T20:17:14.782Z,12.80
2019-01-09T20:24:14.392Z,38.90
2019-01-09T20:29:18.500Z,34.70
2019-01-09T20:34:22.296Z,31.47
2019-01-09T20:39:26.230Z,28.20
2019-01-09T20:44:30.037Z,30.77
2019-01-09T20:49:33.850Z,29.50
2019-01-09T20:54:37.578Z,28.83
2019-01-09T20:59:42.622Z,23.87
2019-01-09T21:04:47.080Z,24.40
2019-01-09T21:09:51.808Z,22.97
2019-01-09T21:14:55.982Z,21.80
2019-01-09T21:20:00.301Z,23.17
2019-01-09T21:25:05.327Z,22.53
2019-01-09T21:30:11.214Z,27.00
2019-01-09T21:35:15.152Z,31.50
2019-01-09T21:40:29.382Z,25.90
2019-01-09T21:45:33.326Z,25.17
2019-01-09T21:50:37.271Z,27.60
2019-01-09T21:55:41.195Z,33.37
2019-01-09T22:00:45.292Z,25.00
2019-01-09T22:05:49.230Z,24.47
2019-01-09T22:10:53.331Z,25.50
2019-01-09T22:15:57.321Z,23.43
2019-01-09T22:21:01.246Z,24.73
2019-01-09T22:26:05.365Z,22.97
2019-01-09T22:31:09.285Z,23.80
2019-01-09T22:36:13.265Z,23.63
2019-01-09T22:41:17.359Z,23.77
2019-01-09T22:46:21.033Z,28.33
2019-01-09T22:51:24.911Z,27.93
2019-01-09T22:56:28.691Z,30.60
2019-01-09T23:01:32.730Z,28.17
2019-01-09T23:06:36.880Z,27.33
2019-01-09T23:11:40.678Z,23.50
2019-01-09T23:16:44.536Z,24.50
2019-01-09T23:21:48.350Z,23.00
2019-01-09T23:26:52.155Z,24.10
2019-01-09T23:31:56.030Z,22.63
2019-01-09T23:36:59.780Z,22.17
2019-01-09T23:42:03.564Z,22.60
2019-01-09T23:47:07.543Z,23.63
2019-01-09T23:52:11.286Z,23.80
2019-01-09T23:57:15.052Z,25.40
